createdAt,value
2023-04-17T00:01:21.052Z,100.00
2023-04-17T00:03:24.079Z,100.00
2023-04-17T00:05:27.924Z,100.00
2023-04-17T00:07:34.337Z,100.00
2023-04-17T00:09:37.062Z,100.00
2023-04-17T00:11:40.185Z,100.00
2023-04-17T00:13:44.017Z,100.00
2023-04-17T00:15:46.698Z,100.00
2023-04-17T00:17:49.483Z,100.00
2023-04-17T00:19:52.318Z,100.00
2023-04-17T00:21:55.048Z,100.00
2023-04-17T00:23:59.453Z,100.00
2023-04-17T00:26:02.626Z,100.00
2023-04-17T00:28:05.915Z,100.00
2023-04-17T00:30:09.841Z,100.00
2023-04-17T00:32:12.549Z,100.00
2023-04-17T00:34:15.244Z,100.00
2023-04-17T00:36:17.972Z,100.00
2023-04-17T00:38:20.690Z,100.00
2023-04-17T00:40:24.658Z,100.00
2023-04-17T00:42:27.505Z,100.00
2023-04-17T00:44:30.702Z,100.00
2023-04-17T00:46:33.709Z,100.00
2023-04-17T00:48:38.431Z,100.00
2023-04-17T00:50:41.647Z,100.00
2023-04-17T00:52:46.057Z,100.00
2023-04-17T00:54:48.702Z,100.00
2023-04-17T00:56:55.178Z,100.00
2023-04-17T00:58:58.742Z,100.00
2023-04-17T01:01:01.466Z,100.00
2023-04-17T01:03:07.328Z,100.00
2023-04-17T01:05:10.671Z,100.00
2023-04-17T01:07:13.366Z,100.00
2023-04-17T01:09:19.009Z,100.00
2023-04-17T01:11:22.095Z,100.00
2023-04-17T01:13:26.340Z,100.00
2023-04-17T01:15:29.379Z,100.00
2023-04-17T01:17:32.195Z,100.00
2023-04-17T01:19:34.989Z,100.00
2023-04-17T01:21:37.692Z,100.00
2023-04-17T01:23:45.417Z,100.00
2023-04-17T01:25:51.184Z,100.00
2023-04-17T01:27:53.965Z,100.00
2023-04-17T01:29:56.575Z,100.00
2023-04-17T01:31:59.190Z,100.00
2023-04-17T01:34:04.923Z,100.00
2023-04-17T01:36:07.993Z,100.00
2023-04-17T01:38:10.633Z,100.00
2023-04-17T01:40:13.884Z,100.00
2023-04-17T01:42:17.921Z,100.00
2023-04-17T01:44:20.706Z,100.00
2023-04-17T01:46:23.462Z,100.00
2023-04-17T01:48:26.125Z,100.00
2023-04-17T01:50:28.786Z,100.00
2023-04-17T01:52:31.623Z,100.00
2023-04-17T01:54:34.294Z,100.00
2023-04-17T01:56:36.890Z,100.00
2023-04-17T01:58:41.010Z,100.00
2023-04-17T02:00:43.708Z,100.00
2023-04-17T02:02:46.485Z,100.00
2023-04-17T02:04:49.260Z,100.00
2023-04-17T02:06:52.253Z,100.00
2023-04-17T02:08:54.918Z,100.00
2023-04-17T02:10:57.602Z,100.00
2023-04-17T02:13:00.290Z,100.00
2023-04-17T02:15:04.346Z,100.00
2023-04-17T02:17:07.186Z,100.00
2023-04-17T02:19:10.065Z,100.00
2023-04-17T02:21:12.959Z,100.00
2023-04-17T02:23:15.690Z,100.00
2023-04-17T02:25:18.481Z,100.00
2023-04-17T02:27:21.262Z,100.00
2023-04-17T02:29:23.896Z,100.00
2023-04-17T02:31:27.936Z,100.00
2023-04-17T02:33:30.673Z,100.00
2023-04-17T02:35:34.115Z,100.00
2023-04-17T02:37:37.181Z,100.00
2023-04-17T02:39:39.798Z,100.00
2023-04-17T02:41:42.512Z,100.00
2023-04-17T02:43:45.230Z,100.00
2023-04-17T02:45:47.973Z,100.00
2023-04-17T02:47:52.064Z,100.00
2023-04-17T02:49:56.174Z,100.00
2023-04-17T02:51:58.976Z,100.00
2023-04-17T02:54:01.669Z,100.00
2023-04-17T02:56:05.098Z,100.00
2023-04-17T02:58:07.795Z,100.00
2023-04-17T03:00:13.938Z,100.00
2023-04-17T03:02:21.814Z,100.00
2023-04-17T03:04:27.631Z,100.00
2023-04-17T03:06:30.239Z,100.00
2023-04-17T03:08:35.457Z,100.00
2023-04-17T03:10:38.101Z,100.00
2023-04-17T03:12:40.810Z,100.00
2023-04-17T03:14:44.700Z,100.00
2023-04-17T03:16:47.371Z,100.00
2023-04-17T03:18:50.041Z,100.00
2023-04-17T03:20:54.143Z,100.00
2023-04-17T03:22:56.832Z,100.00
2023-04-17T03:24:59.481Z,100.00
2023-04-17T03:27:02.949Z,100.00
2023-04-17T03:29:06.043Z,100.00
2023-04-17T03:31:08.710Z,100.00
2023-04-17T03:33:11.423Z,100.00
2023-04-17T03:35:14.269Z,100.00
2023-04-17T03:37:18.315Z,100.00
2023-04-17T03:39:21.476Z,100.00
2023-04-17T03:41:24.291Z,100.00
2023-04-17T03:43:27.074Z,100.00
2023-04-17T03:45:29.690Z,100.00
2023-04-17T03:47:32.403Z,100.00
2023-04-17T03:49:35.055Z,100.00
2023-04-17T03:51:37.728Z,100.00
2023-04-17T03:53:41.852Z,100.00
2023-04-17T03:55:44.571Z,100.00
2023-04-17T03:57:48.521Z,100.00
2023-04-17T03:59:51.313Z,100.00
2023-04-17T04:01:54.413Z,100.00
2023-04-17T04:03:57.341Z,100.00
2023-04-17T04:06:00.061Z,100.00
2023-04-17T04:08:02.745Z,100.00
2023-04-17T04:10:08.036Z,100.00
2023-04-17T04:12:11.345Z,100.00
2023-04-17T04:14:13.918Z,100.00
2023-04-17T04:16:16.754Z,100.00
2023-04-17T04:18:19.568Z,100.00
2023-04-17T04:20:23.046Z,100.00
2023-04-17T04:22:25.750Z,100.00
2023-04-17T04:24:28.605Z,100.00
2023-04-17T04:26:36.348Z,100.00
2023-04-17T04:28:42.590Z,100.00
2023-04-17T04:30:50.749Z,100.00
2023-04-17T04:32:55.908Z,100.00
2023-04-17T04:35:01.946Z,100.00
2023-04-17T04:37:04.768Z,100.00
2023-04-17T04:39:07.411Z,100.00
2023-04-17T04:41:10.573Z,100.00
2023-04-17T04:43:14.572Z,100.00
2023-04-17T04:45:18.661Z,100.00
2023-04-17T04:47:22.736Z,100.00
2023-04-17T04:49:25.660Z,100.00
2023-04-17T04:51:28.333Z,100.00
2023-04-17T04:53:31.529Z,100.00
2023-04-17T04:55:34.317Z,100.00
2023-04-17T04:57:37.342Z,100.00
2023-04-17T04:59:41.310Z,100.00
2023-04-17T05:01:44.689Z,100.00
2023-04-17T05:03:47.999Z,100.00
2023-04-17T05:05:51.377Z,100.00
2023-04-17T05:07:54.965Z,100.00
2023-04-17T05:09:57.675Z,100.00
2023-04-17T05:12:00.386Z,100.00
2023-04-17T05:14:03.004Z,100.00
2023-04-17T05:16:07.564Z,100.00
2023-04-17T05:18:10.433Z,100.00
2023-04-17T05:20:14.944Z,100.00
2023-04-17T05:22:17.563Z,100.00
2023-04-17T05:24:20.414Z,100.00
2023-04-17T05:26:23.367Z,100.00
2023-04-17T05:28:27.281Z,100.00
2023-04-17T05:30:30.293Z,100.00
2023-04-17T05:32:35.055Z,100.00
2023-04-17T05:34:37.813Z,100.00
2023-04-17T05:36:40.494Z,100.00
2023-04-17T05:38:45.942Z,100.00
2023-04-17T05:40:48.895Z,100.00
2023-04-17T05:42:51.773Z,100.00
2023-04-17T05:44:54.454Z,100.00
2023-04-17T05:47:00.052Z,100.00
2023-04-17T05:49:04.092Z,100.00
2023-04-17T05:51:07.002Z,100.00
2023-04-17T05:53:09.779Z,100.00
2023-04-17T05:55:12.486Z,100.00
2023-04-17T05:57:15.255Z,100.00
2023-04-17T05:59:17.949Z,100.00
2023-04-17T06:01:22.354Z,100.00
2023-04-17T06:03:25.858Z,100.00
2023-04-17T06:05:30.357Z,100.00
2023-04-17T06:07:33.848Z,100.00
2023-04-17T06:09:37.346Z,100.00
2023-04-17T06:11:40.104Z,100.00
2023-04-17T06:13:42.920Z,100.00
2023-04-17T06:15:45.813Z,100.00
2023-04-17T06:17:48.486Z,100.00
2023-04-17T06:19:51.151Z,100.00
2023-04-17T06:21:55.228Z,100.00
2023-04-17T06:23:57.882Z,100.00
2023-04-17T06:26:00.574Z,100.00
2023-04-17T06:28:03.756Z,100.00
2023-04-17T06:30:07.684Z,100.00
2023-04-17T06:32:10.667Z,100.00
2023-04-17T06:34:13.365Z,100.00
2023-04-17T06:36:16.294Z,100.00
2023-04-17T06:38:20.318Z,100.00
2023-04-17T06:40:22.990Z,100.00
2023-04-17T06:42:25.926Z,100.00
2023-04-17T06:44:28.674Z,100.00
2023-04-17T06:46:31.440Z,100.00
2023-04-17T06:48:34.147Z,100.00
2023-04-17T06:50:36.836Z,100.00
2023-04-17T06:52:39.524Z,100.00
2023-04-17T06:54:43.676Z,100.00
2023-04-17T06:56:46.384Z,100.00
2023-04-17T06:58:49.087Z,100.00
2023-04-17T07:00:51.753Z,100.00
2023-04-17T07:02:54.532Z,100.00
2023-04-17T07:04:57.470Z,100.00
2023-04-17T07:07:00.533Z,100.00
2023-04-17T07:09:03.381Z,100.00
2023-04-17T07:11:07.548Z,100.00
2023-04-17T07:13:10.246Z,100.00
2023-04-17T07:15:13.195Z,100.00
2023-04-17T07:17:15.952Z,100.00
2023-04-17T07:19:18.566Z,100.00
2023-04-17T07:21:21.174Z,100.00
2023-04-17T07:23:24.148Z,100.00
2023-04-17T07:25:27.050Z,100.00
2023-04-17T07:27:31.087Z,100.00
2023-04-17T07:29:33.986Z,100.00
2023-04-17T07:31:36.962Z,100.00
2023-04-17T07:33:40.597Z,100.00
2023-04-17T07:35:44.541Z,100.00
2023-04-17T07:37:47.213Z,100.00
2023-04-17T07:39:50.370Z,100.00
2023-04-17T07:41:53.048Z,100.00
2023-04-17T07:43:58.955Z,100.00
2023-04-17T07:46:02.011Z,100.00
2023-04-17T07:48:05.202Z,100.00
2023-04-17T07:50:09.056Z,100.00
2023-04-17T07:52:11.720Z,100.00
2023-04-17T07:54:14.430Z,100.00
2023-04-17T07:56:17.493Z,100.00
2023-04-17T07:58:20.303Z,100.00
2023-04-17T08:00:24.648Z,100.00
2023-04-17T08:02:27.575Z,100.00
2023-04-17T08:04:30.900Z,100.00
2023-04-17T08:06:33.776Z,100.00
2023-04-17T08:08:36.429Z,100.00
2023-04-17T08:10:39.129Z,100.00
2023-04-17T08:12:41.805Z,100.00
2023-04-17T08:14:44.618Z,100.00
2023-04-17T08:16:48.720Z,100.00
2023-04-17T08:18:51.492Z,100.00
2023-04-17T08:20:54.215Z,100.00
2023-04-17T08:22:57.322Z,100.00
2023-04-17T08:25:00.026Z,100.00
2023-04-17T08:27:03.507Z,100.00
2023-04-17T08:29:06.217Z,100.00
2023-04-17T08:31:10.393Z,100.00
2023-04-17T08:33:16.883Z,100.00
2023-04-17T08:35:20.228Z,100.00
2023-04-17T08:37:22.959Z,100.00
2023-04-17T08:39:27.159Z,100.00
2023-04-17T08:41:37.484Z,100.00
2023-04-17T08:43:42.314Z,100.00
2023-04-17T08:45:50.102Z,100.00
2023-04-17T08:47:53.010Z,100.00
2023-04-17T08:49:58.607Z,100.00
2023-04-17T08:52:03.085Z,100.00
2023-04-17T08:54:05.938Z,100.00
2023-04-17T08:56:09.343Z,100.00
2023-04-17T08:58:13.281Z,100.00
2023-04-17T09:00:25.393Z,100.00
2023-04-17T09:02:28.384Z,100.00
2023-04-17T09:04:39.316Z,100.00
2023-04-17T09:06:54.316Z,100.00
2023-04-17T09:08:58.927Z,100.00
2023-04-17T09:11:01.613Z,100.00
2023-04-17T09:13:04.869Z,100.00
2023-04-17T09:15:16.930Z,100.00
2023-04-17T09:17:21.341Z,100.00
2023-04-17T09:19:24.011Z,100.00
2023-04-17T09:21:28.955Z,100.00
2023-04-17T09:23:46.917Z,100.00
2023-04-17T09:26:07.454Z,100.00
2023-04-17T09:28:12.745Z,100.00
2023-04-17T09:30:15.701Z,100.00
2023-04-17T09:32:18.461Z,100.00
2023-04-17T09:34:21.889Z,100.00
2023-04-17T09:36:24.773Z,100.00
2023-04-17T09:38:40.040Z,100.00
2023-04-17T09:40:45.248Z,100.00
2023-04-17T09:42:58.697Z,100.00
2023-04-17T09:45:19.139Z,100.00
2023-04-17T09:47:23.597Z,100.00
2023-04-17T09:49:35.372Z,100.00
2023-04-17T09:51:38.734Z,100.00
2023-04-17T09:53:42.847Z,100.00
2023-04-17T09:55:46.052Z,100.00
2023-04-17T09:57:50.522Z,100.00
2023-04-17T09:59:57.396Z,100.00
2023-04-17T10:02:01.920Z,100.00
2023-04-17T10:04:06.825Z,100.00
2023-04-17T10:06:10.143Z,100.00
2023-04-17T10:08:12.872Z,100.00
2023-04-17T10:10:23.760Z,100.00
2023-04-17T10:12:26.701Z,100.00
2023-04-17T10:14:33.296Z,100.00
2023-04-17T10:16:37.068Z,100.00
2023-04-17T10:18:40.472Z,100.00
2023-04-17T10:20:44.956Z,100.00
2023-04-17T10:22:54.542Z,100.00
2023-04-17T10:25:19.785Z,100.00
2023-04-17T10:27:46.375Z,100.00
2023-04-17T10:29:59.306Z,100.00
2023-04-17T10:32:24.369Z,100.00
2023-04-17T10:34:44.845Z,100.00
2023-04-17T10:36:50.801Z,100.00
2023-04-17T10:38:53.426Z,100.00
2023-04-17T10:40:56.164Z,100.00
2023-04-17T10:43:13.399Z,100.00
2023-04-17T10:45:19.959Z,100.00
2023-04-17T10:47:23.160Z,100.00
2023-04-17T10:49:25.993Z,100.00
2023-04-17T10:51:42.687Z,100.00
2023-04-17T10:53:45.941Z,100.00
2023-04-17T10:55:51.365Z,100.00
2023-04-17T10:57:55.978Z,100.00
2023-04-17T11:00:13.719Z,100.00
2023-04-17T11:02:17.318Z,100.00
2023-04-17T11:04:21.808Z,100.00
2023-04-17T11:06:28.786Z,100.00
2023-04-17T11:08:31.618Z,100.00
2023-04-17T11:10:37.104Z,100.00
2023-04-17T11:12:39.826Z,100.00
2023-04-17T11:14:43.218Z,100.00
2023-04-17T11:16:49.036Z,100.00
2023-04-17T11:18:52.260Z,100.00
2023-04-17T11:20:54.964Z,100.00
2023-04-17T11:22:58.190Z,100.00
2023-04-17T11:25:00.994Z,100.00
2023-04-17T11:27:04.744Z,100.00
2023-04-17T11:29:14.970Z,100.00
2023-04-17T11:31:19.853Z,100.00
2023-04-17T11:33:25.199Z,100.00
2023-04-17T11:35:32.644Z,100.00
2023-04-17T11:37:35.431Z,100.00
2023-04-17T11:39:38.226Z,100.00
2023-04-17T11:41:42.517Z,100.00
2023-04-17T11:43:45.393Z,100.00
2023-04-17T11:45:52.576Z,100.00
2023-04-17T11:47:55.292Z,100.00
2023-04-17T11:49:59.480Z,100.00
2023-04-17T11:52:04.052Z,100.00
2023-04-17T11:54:06.799Z,100.00
2023-04-17T11:56:17.122Z,100.00
2023-04-17T11:58:19.739Z,100.00
2023-04-17T12:00:27.444Z,100.00
2023-04-17T12:02:34.416Z,100.00
2023-04-17T12:04:39.424Z,100.00
2023-04-17T12:06:43.871Z,100.00
2023-04-17T12:08:50.136Z,100.00
2023-04-17T12:10:52.881Z,100.00
2023-04-17T12:12:56.537Z,100.00
2023-04-17T12:15:00.970Z,100.00
2023-04-17T12:17:03.624Z,97.42
2023-04-17T12:19:07.979Z,100.00
2023-04-17T12:21:10.796Z,100.00
2023-04-17T12:23:14.791Z,100.00
2023-04-17T12:25:17.437Z,100.00
2023-04-17T12:27:20.085Z,100.00
2023-04-17T12:29:36.243Z,100.00
2023-04-17T12:31:45.976Z,100.00
2023-04-17T12:33:48.635Z,100.00
2023-04-17T12:35:51.415Z,100.00
2023-04-17T12:37:54.065Z,100.00
2023-04-17T12:39:59.612Z,100.00
2023-04-17T12:42:02.244Z,100.00
2023-04-17T12:44:05.106Z,100.00
2023-04-17T12:46:08.080Z,100.00
2023-04-17T12:48:11.016Z,100.00
2023-04-17T12:50:14.112Z,100.00
2023-04-17T12:52:16.810Z,100.00
2023-04-17T12:54:19.824Z,100.00
2023-04-17T12:56:24.126Z,100.00
2023-04-17T12:58:26.885Z,100.00
2023-04-17T13:00:29.605Z,100.00
2023-04-17T13:02:32.664Z,100.00
2023-04-17T13:04:35.762Z,100.00
2023-04-17T13:06:38.667Z,100.00
2023-04-17T13:08:41.383Z,100.00
2023-04-17T13:10:44.206Z,100.00
2023-04-17T13:12:48.500Z,100.00
2023-04-17T13:14:51.306Z,100.00
2023-04-17T13:16:54.087Z,100.00
2023-04-17T13:18:56.820Z,100.00
2023-04-17T13:20:59.593Z,100.00
2023-04-17T13:23:02.449Z,100.00
2023-04-17T13:25:05.888Z,100.00
2023-04-17T13:27:09.811Z,100.00
2023-04-17T13:29:15.620Z,100.00
2023-04-17T13:31:19.990Z,100.00
2023-04-17T13:33:22.661Z,100.00
2023-04-17T13:35:25.350Z,100.00
2023-04-17T13:37:28.145Z,100.00
2023-04-17T13:39:31.025Z,100.00
2023-04-17T13:41:33.726Z,100.00
2023-04-17T13:43:36.369Z,100.00
2023-04-17T13:45:40.460Z,100.00
2023-04-17T13:47:44.624Z,100.00
2023-04-17T13:49:47.389Z,100.00
2023-04-17T13:51:50.238Z,100.00
2023-04-17T13:53:52.921Z,100.00
2023-04-17T13:55:55.652Z,100.00
2023-04-17T13:57:58.594Z,100.00
2023-04-17T14:00:01.275Z,100.00
2023-04-17T14:02:05.562Z,100.00
2023-04-17T14:04:08.513Z,100.00
2023-04-17T14:06:11.464Z,100.00
2023-04-17T14:08:14.252Z,100.00
2023-04-17T14:10:16.875Z,100.00
2023-04-17T14:12:21.670Z,100.00
2023-04-17T14:14:24.545Z,100.00
2023-04-17T14:16:27.614Z,100.00
2023-04-17T14:18:32.324Z,100.00
2023-04-17T14:20:34.967Z,100.00
2023-04-17T14:22:37.758Z,100.00
2023-04-17T14:24:40.472Z,100.00
2023-04-17T14:26:43.174Z,100.00
2023-04-17T14:28:45.842Z,100.00
2023-04-17T14:30:48.535Z,100.00
2023-04-17T14:32:53.366Z,100.00
2023-04-17T14:34:57.524Z,100.00
2023-04-17T14:37:00.190Z,100.00
2023-04-17T14:39:02.933Z,100.00
2023-04-17T14:41:05.842Z,100.00
2023-04-17T14:43:08.611Z,100.00
2023-04-17T14:45:12.535Z,100.00
2023-04-17T14:47:15.355Z,100.00
2023-04-17T14:49:18.046Z,100.00
2023-04-17T14:51:22.325Z,100.00
2023-04-17T14:53:25.045Z,100.00
2023-04-17T14:55:27.980Z,100.00
2023-04-17T14:57:30.709Z,100.00
2023-04-17T14:59:33.560Z,100.00
2023-04-17T15:01:36.548Z,100.00
2023-04-17T15:03:39.650Z,100.00
2023-04-17T15:05:42.547Z,100.00
2023-04-17T15:07:46.541Z,100.00
2023-04-17T15:09:49.238Z,100.00
2023-04-17T15:11:52.032Z,100.00
2023-04-17T15:13:54.775Z,100.00
2023-04-17T15:15:57.498Z,100.00
2023-04-17T15:18:00.327Z,100.00
2023-04-17T15:20:04.101Z,99.39
2023-04-17T15:22:06.774Z,100.00
2023-04-17T15:24:10.925Z,97.40
2023-04-17T15:26:14.082Z,96.43
2023-04-17T15:28:16.769Z,97.64
2023-04-17T15:30:19.502Z,97.94
2023-04-17T15:32:22.242Z,96.42
2023-04-17T15:34:25.053Z,97.85
2023-04-17T15:36:31.272Z,98.40
2023-04-17T15:38:34.038Z,99.47
2023-04-17T15:40:38.132Z,99.20
2023-04-17T15:42:40.877Z,99.05
2023-04-17T15:44:43.486Z,100.00
2023-04-17T15:46:46.361Z,100.00
2023-04-17T15:49:01.233Z,100.00
2023-04-17T15:51:10.684Z,100.00
2023-04-17T15:53:13.463Z,99.90
2023-04-17T15:55:16.536Z,100.00
2023-04-17T15:57:20.549Z,100.00
2023-04-17T15:59:23.314Z,100.00
2023-04-17T16:01:26.443Z,100.00
2023-04-17T16:03:29.404Z,100.00
2023-04-17T16:05:32.225Z,100.00
2023-04-17T16:07:34.827Z,100.00
2023-04-17T16:09:37.534Z,100.00
2023-04-17T16:11:40.204Z,100.00
2023-04-17T16:13:44.256Z,100.00
2023-04-17T16:15:46.927Z,100.00
2023-04-17T16:17:49.681Z,100.00
2023-04-17T16:19:52.411Z,100.00
2023-04-17T16:21:56.636Z,100.00
2023-04-17T16:23:59.433Z,100.00
2023-04-17T16:26:02.053Z,100.00
2023-04-17T16:28:04.736Z,100.00
2023-04-17T16:30:10.690Z,100.00
2023-04-17T16:32:14.258Z,100.00
2023-04-17T16:34:17.217Z,100.00
2023-04-17T16:36:20.016Z,100.00
2023-04-17T16:38:22.673Z,100.00
2023-04-17T16:40:26.559Z,100.00
2023-04-17T16:42:29.159Z,100.00
2023-04-17T16:44:31.840Z,100.00
2023-04-17T16:46:52.109Z,100.00
2023-04-17T16:48:58.845Z,100.00
2023-04-17T16:51:05.797Z,100.00
2023-04-17T16:53:09.335Z,100.00
2023-04-17T16:55:12.077Z,100.00
2023-04-17T16:57:14.760Z,100.00
2023-04-17T16:59:17.561Z,100.00
2023-04-17T17:01:20.261Z,100.00
2023-04-17T17:03:24.420Z,100.00
2023-04-17T17:05:27.122Z,100.00
2023-04-17T17:07:29.802Z,100.00
2023-04-17T17:09:32.576Z,100.00
2023-04-17T17:11:35.297Z,100.00
2023-04-17T17:13:38.005Z,100.00
2023-04-17T17:15:40.679Z,100.00
2023-04-17T17:17:43.459Z,100.00
2023-04-17T17:19:47.559Z,100.00
2023-04-17T17:21:50.808Z,100.00
2023-04-17T17:23:53.468Z,100.00
2023-04-17T17:25:56.089Z,100.00
2023-04-17T17:27:58.998Z,100.00
2023-04-17T17:30:01.691Z,100.00
2023-04-17T17:32:04.888Z,100.00
2023-04-17T17:34:22.646Z,100.00
2023-04-17T17:36:31.313Z,100.00
2023-04-17T17:38:34.012Z,100.00
2023-04-17T17:40:36.744Z,100.00
2023-04-17T17:42:39.349Z,100.00
2023-04-17T17:44:41.978Z,100.00
2023-04-17T17:46:44.768Z,100.00
2023-04-17T17:48:47.630Z,100.00
2023-04-17T17:50:54.225Z,100.00
2023-04-17T17:52:59.007Z,100.00
2023-04-17T17:55:01.984Z,100.00
2023-04-17T17:57:05.330Z,100.00
2023-04-17T17:59:08.062Z,100.00
2023-04-17T18:01:11.050Z,100.00
2023-04-17T18:03:15.735Z,100.00
2023-04-17T18:05:19.023Z,100.00
2023-04-17T18:07:21.740Z,100.00
2023-04-17T18:09:25.822Z,100.00
2023-04-17T18:11:28.645Z,100.00
2023-04-17T18:13:31.288Z,100.00
2023-04-17T18:15:34.055Z,100.00
2023-04-17T18:17:36.824Z,100.00
2023-04-17T18:19:41.620Z,100.00
2023-04-17T18:21:47.245Z,100.00
2023-04-17T18:23:50.353Z,100.00
2023-04-17T18:26:02.088Z,100.00
2023-04-17T18:28:04.859Z,100.00
2023-04-17T18:30:09.735Z,100.00
2023-04-17T18:32:12.476Z,100.00
2023-04-17T18:34:15.379Z,100.00
2023-04-17T18:36:18.204Z,100.00
2023-04-17T18:38:20.853Z,100.00
2023-04-17T18:40:23.502Z,100.00
2023-04-17T18:42:27.432Z,100.00
2023-04-17T18:44:30.060Z,100.00
2023-04-17T18:46:32.763Z,100.00
2023-04-17T18:48:35.529Z,100.00
2023-04-17T18:50:38.393Z,100.00
2023-04-17T18:52:44.043Z,100.00
2023-04-17T18:54:49.584Z,100.00
2023-04-17T18:56:52.228Z,100.00
2023-04-17T18:58:56.218Z,100.00
2023-04-17T19:00:59.016Z,100.00
2023-04-17T19:03:01.799Z,100.00
2023-04-17T19:05:05.697Z,100.00
2023-04-17T19:07:08.414Z,100.00
2023-04-17T19:09:11.549Z,100.00
2023-04-17T19:11:14.248Z,100.00
2023-04-17T19:13:16.908Z,100.00
2023-04-17T19:15:21.381Z,100.00
2023-04-17T19:17:25.249Z,100.00
2023-04-17T19:19:28.057Z,100.00
2023-04-17T19:21:31.711Z,100.00
2023-04-17T19:23:34.422Z,100.00
2023-04-17T19:25:38.394Z,100.00
2023-04-17T19:27:41.037Z,100.00
2023-04-17T19:29:43.822Z,100.00
2023-04-17T19:31:47.913Z,100.00
2023-04-17T19:33:50.564Z,100.00
2023-04-17T19:35:53.330Z,100.00
2023-04-17T19:37:55.978Z,100.00
2023-04-17T19:39:58.683Z,100.00
2023-04-17T19:42:02.253Z,100.00
2023-04-17T19:44:05.124Z,100.00
2023-04-17T19:46:08.652Z,100.00
2023-04-17T19:48:12.832Z,100.00
2023-04-17T19:50:15.673Z,100.00
2023-04-17T19:52:18.479Z,100.00
2023-04-17T19:54:21.196Z,100.00
2023-04-17T19:56:24.112Z,100.00
2023-04-17T19:58:26.885Z,100.00
2023-04-17T20:00:29.548Z,100.00
2023-04-17T20:02:32.464Z,100.00
2023-04-17T20:04:36.587Z,100.00
2023-04-17T20:06:39.578Z,100.00
2023-04-17T20:08:42.316Z,100.00
2023-04-17T20:10:44.972Z,100.00
2023-04-17T20:12:47.653Z,100.00
2023-04-17T20:14:52.530Z,100.00
2023-04-17T20:16:56.182Z,100.00
2023-04-17T20:18:58.884Z,100.00
2023-04-17T20:21:02.962Z,100.00
2023-04-17T20:23:06.097Z,100.00
2023-04-17T20:25:09.698Z,100.00
2023-04-17T20:27:12.319Z,100.00
2023-04-17T20:29:15.209Z,100.00
2023-04-17T20:31:18.278Z,100.00
2023-04-17T20:33:20.936Z,100.00
2023-04-17T20:35:24.694Z,100.00
2023-04-17T20:37:28.822Z,100.00
2023-04-17T20:39:32.052Z,100.00
2023-04-17T20:41:34.802Z,100.00
2023-04-17T20:43:37.512Z,100.00
2023-04-17T20:45:40.498Z,100.00
2023-04-17T20:47:55.975Z,100.00
2023-04-17T20:49:59.713Z,100.00
2023-04-17T20:52:02.983Z,100.00
2023-04-17T20:54:07.094Z,100.00
2023-04-17T20:56:09.809Z,100.00
2023-04-17T20:58:12.488Z,100.00
2023-04-17T21:00:15.824Z,100.00
2023-04-17T21:02:18.711Z,100.00
2023-04-17T21:04:21.865Z,100.00
2023-04-17T21:06:24.587Z,100.00
2023-04-17T21:08:27.464Z,100.00
2023-04-17T21:10:31.497Z,100.00
2023-04-17T21:12:35.191Z,100.00
2023-04-17T21:14:38.068Z,100.00
2023-04-17T21:16:41.631Z,100.00
2023-04-17T21:18:44.307Z,100.00
2023-04-17T21:20:46.974Z,100.00
2023-04-17T21:22:49.778Z,100.00
2023-04-17T21:24:52.410Z,100.00
2023-04-17T21:26:58.594Z,100.00
2023-04-17T21:29:01.222Z,100.00
2023-04-17T21:31:08.345Z,100.00
2023-04-17T21:33:11.136Z,100.00
2023-04-17T21:35:13.758Z,100.00
2023-04-17T21:37:16.344Z,100.00
2023-04-17T21:39:19.125Z,100.00
2023-04-17T21:41:22.023Z,100.00
2023-04-17T21:43:26.046Z,100.00
2023-04-17T21:45:28.774Z,100.00
2023-04-17T21:47:31.421Z,100.00
2023-04-17T21:49:34.172Z,100.00
2023-04-17T21:51:36.802Z,100.00
2023-04-17T21:53:39.510Z,100.00
2023-04-17T21:55:42.347Z,100.00
2023-04-17T21:57:45.934Z,100.00
2023-04-17T21:59:49.937Z,100.00
2023-04-17T22:01:52.596Z,100.00
2023-04-17T22:03:55.583Z,100.00
2023-04-17T22:05:58.737Z,100.00
2023-04-17T22:08:02.171Z,100.00
2023-04-17T22:10:05.422Z,100.00
2023-04-17T22:12:12.409Z,100.00
2023-04-17T22:14:16.898Z,100.00
2023-04-17T22:16:21.049Z,100.00
2023-04-17T22:18:23.745Z,100.00
2023-04-17T22:20:26.623Z,100.00
2023-04-17T22:22:29.252Z,100.00
2023-04-17T22:24:31.849Z,100.00
2023-04-17T22:26:34.588Z,100.00
2023-04-17T22:28:37.378Z,100.00
2023-04-17T22:30:40.076Z,100.00
2023-04-17T22:32:44.282Z,100.00
2023-04-17T22:34:48.643Z,100.00
2023-04-17T22:36:51.389Z,100.00
2023-04-17T22:38:54.184Z,100.00
2023-04-17T22:40:56.823Z,100.00
2023-04-17T22:42:59.485Z,100.00
2023-04-17T22:45:02.275Z,100.00
2023-04-17T22:47:05.070Z,100.00
2023-04-17T22:49:09.626Z,100.00
2023-04-17T22:51:12.531Z,100.00
2023-04-17T22:53:15.223Z,100.00
2023-04-17T22:55:18.094Z,100.00
2023-04-17T22:57:20.993Z,100.00
2023-04-17T22:59:23.880Z,100.00
2023-04-17T23:01:26.760Z,100.00
2023-04-17T23:03:29.924Z,100.00
2023-04-17T23:05:34.049Z,100.00
2023-04-17T23:07:37.040Z,100.00
2023-04-17T23:09:39.678Z,100.00
2023-04-17T23:11:42.474Z,100.00
2023-04-17T23:13:45.401Z,100.00
2023-04-17T23:15:48.236Z,100.00
2023-04-17T23:17:50.990Z,100.00
2023-04-17T23:19:54.405Z,100.00
2023-04-17T23:21:59.466Z,100.00
2023-04-17T23:24:02.488Z,100.00
2023-04-17T23:26:05.288Z,100.00
2023-04-17T23:28:07.950Z,100.00
2023-04-17T23:30:11.464Z,100.00
2023-04-17T23:32:14.143Z,100.00
2023-04-17T23:34:16.882Z,100.00
2023-04-17T23:36:19.630Z,100.00
2023-04-17T23:38:23.676Z,100.00
2023-04-17T23:40:28.045Z,100.00
2023-04-17T23:42:30.822Z,100.00
2023-04-17T23:44:33.536Z,100.00
2023-04-17T23:46:36.344Z,100.00
2023-04-17T23:48:39.113Z,100.00
2023-04-17T23:50:42.942Z,100.00
2023-04-17T23:52:46.194Z,100.00
2023-04-17T23:54:50.181Z,100.00
2023-04-17T23:56:53.537Z,100.00
2023-04-17T23:58:56.308Z,100.00
